createdAt,value
2018-02-22T00:00:51.576Z,76.83
2018-02-22T00:03:19.316Z,96.12
2018-02-22T00:05:47.104Z,71.95
2018-02-22T00:08:14.760Z,67.20
2018-02-22T00:10:42.487Z,73.25
2018-02-22T00:13:10.229Z,57.33
2018-02-22T00:15:37.952Z,77.30
2018-02-22T00:18:05.720Z,133.93
2018-02-22T00:20:33.476Z,129.95
2018-02-22T00:23:01.245Z,52.45
2018-02-22T00:25:29.016Z,99.60
2018-02-22T00:27:56.737Z,69.30
2018-02-22T00:30:24.475Z,56.45
2018-02-22T00:32:52.202Z,102.70
2018-02-22T00:35:19.968Z,132.55
2018-02-22T00:37:47.736Z,108.32
2018-02-22T00:40:15.605Z,116.60
2018-02-22T00:42:43.372Z,79.18
2018-02-22T00:45:11.113Z,49.72
2018-02-22T00:47:38.900Z,58.45
2018-02-22T00:50:06.665Z,311.70
2018-02-22T00:52:34.428Z,415.17
2018-02-22T00:55:02.092Z,85.40
2018-02-22T00:57:29.752Z,165.60
2018-02-22T00:59:57.525Z,76.43
2018-02-22T01:02:25.189Z,131.63
2018-02-22T01:04:52.940Z,102.50
2018-02-22T01:07:20.659Z,58.70
2018-02-22T01:09:48.381Z,85.47
2018-02-22T01:12:16.129Z,101.55
2018-02-22T01:14:43.852Z,85.53
2018-02-22T01:17:11.587Z,71.00
2018-02-22T01:19:39.228Z,98.30
2018-02-22T01:22:06.893Z,95.67
2018-02-22T01:24:34.556Z,138.07
2018-02-22T01:27:02.428Z,175.30
2018-02-22T01:29:30.147Z,87.35
2018-02-22T01:31:57.957Z,194.87
2018-02-22T01:34:25.720Z,120.87
2018-02-22T01:36:53.492Z,163.60
2018-02-22T01:39:21.213Z,167.65
2018-02-22T01:41:48.964Z,271.33
2018-02-22T01:44:16.690Z,224.02
2018-02-22T01:46:44.452Z,489.55
2018-02-22T01:49:12.196Z,607.28
2018-02-22T01:51:39.981Z,122.78
2018-02-22T01:54:07.726Z,255.37
2018-02-22T01:56:35.457Z,174.87
2018-02-22T01:59:03.205Z,382.62
2018-02-22T02:01:30.933Z,266.92
2018-02-22T02:03:58.709Z,121.30
2018-02-22T02:06:26.469Z,104.07
2018-02-22T02:08:54.222Z,164.05
2018-02-22T02:11:21.873Z,281.33
2018-02-22T02:13:49.618Z,350.65
2018-02-22T02:16:17.426Z,198.10
2018-02-22T02:18:45.188Z,157.35
2018-02-22T02:21:12.956Z,245.98
2018-02-22T02:23:40.735Z,185.27
2018-02-22T02:26:08.459Z,195.95
2018-02-22T02:28:36.201Z,229.07
2018-02-22T02:31:03.952Z,241.65
2018-02-22T02:33:31.685Z,112.53
2018-02-22T02:35:59.542Z,135.73
2018-02-22T02:38:27.315Z,69.05
2018-02-22T02:40:55.073Z,59.67
2018-02-22T02:43:22.802Z,112.88
2018-02-22T02:45:50.608Z,220.30
2018-02-22T02:48:18.342Z,266.63
2018-02-22T02:50:46.097Z,194.27
2018-02-22T02:53:13.863Z,143.30
2018-02-22T02:55:41.664Z,185.43
2018-02-22T02:58:09.428Z,131.77
2018-02-22T03:00:37.203Z,110.93
2018-02-22T03:03:04.969Z,110.12
2018-02-22T03:05:32.721Z,224.25
2018-02-22T03:08:00.484Z,253.48
2018-02-22T03:10:28.208Z,117.00
2018-02-22T03:12:56.020Z,91.32
2018-02-22T03:15:23.739Z,154.30
2018-02-22T03:17:51.552Z,79.55
2018-02-22T03:20:19.270Z,83.28
2018-02-22T03:22:47.007Z,68.37
2018-02-22T03:25:14.718Z,111.75
2018-02-22T03:27:42.510Z,118.47
2018-02-22T03:30:10.221Z,63.20
2018-02-22T03:32:37.956Z,50.42
2018-02-22T03:35:05.696Z,60.67
2018-02-22T03:37:33.468Z,106.07
2018-02-22T03:40:01.231Z,135.52
2018-02-22T03:42:28.999Z,62.72
2018-02-22T03:44:56.749Z,57.00
2018-02-22T03:47:24.467Z,52.45
2018-02-22T03:49:52.214Z,50.05
2018-02-22T03:52:19.951Z,43.75
2018-02-22T03:54:47.690Z,49.33
2018-02-22T03:57:15.411Z,37.22
2018-02-22T03:59:43.252Z,34.75
2018-02-22T04:02:11.024Z,60.00
2018-02-22T04:04:38.777Z,48.85
2018-02-22T04:07:06.495Z,49.13
2018-02-22T04:09:34.307Z,58.72
2018-02-22T04:12:02.071Z,65.97
2018-02-22T04:14:29.848Z,91.68
2018-02-22T04:16:57.583Z,52.03
2018-02-22T04:19:25.299Z,45.40
2018-02-22T04:21:53.034Z,47.13
2018-02-22T04:24:20.671Z,88.50
2018-02-22T04:26:48.462Z,97.97
2018-02-22T04:29:16.223Z,91.20
2018-02-22T04:31:43.968Z,61.95
2018-02-22T04:34:11.751Z,64.15
2018-02-22T04:36:39.523Z,49.13
2018-02-22T04:39:08.003Z,53.00
2018-02-22T04:41:35.754Z,97.53
2018-02-22T04:44:03.540Z,54.95
2018-02-22T04:46:31.404Z,46.08
2018-02-22T04:48:59.167Z,47.55
2018-02-22T04:51:26.906Z,58.45
2018-02-22T04:53:54.774Z,45.78
2018-02-22T04:56:22.563Z,50.12
2018-02-22T04:58:50.327Z,70.13
2018-02-22T05:01:18.040Z,46.70
2018-02-22T05:03:45.860Z,61.08
2018-02-22T05:06:13.599Z,114.65
2018-02-22T05:08:41.344Z,135.37
2018-02-22T05:11:09.169Z,114.50
2018-02-22T05:13:36.958Z,168.57
2018-02-22T05:16:04.697Z,71.07
2018-02-22T05:18:32.524Z,88.82
2018-02-22T05:21:00.224Z,66.43
2018-02-22T05:23:27.907Z,56.15
2018-02-22T05:25:55.723Z,55.20
2018-02-22T05:28:23.407Z,51.03
2018-02-22T05:30:51.152Z,67.50
2018-02-22T05:33:18.843Z,55.95
2018-02-22T05:35:46.580Z,58.17
2018-02-22T05:38:14.349Z,50.97
2018-02-22T05:40:42.109Z,50.38
2018-02-22T05:43:09.787Z,58.03
2018-02-22T05:45:37.541Z,50.97
2018-02-22T05:48:05.309Z,52.55
2018-02-22T05:50:33.035Z,57.22
2018-02-22T05:53:00.720Z,54.42
2018-02-22T05:55:28.491Z,59.00
2018-02-22T05:57:56.196Z,53.78
2018-02-22T06:00:23.933Z,49.17
2018-02-22T06:02:51.658Z,46.20
2018-02-22T06:05:19.347Z,49.47
2018-02-22T06:07:47.131Z,49.45
2018-02-22T06:10:14.819Z,44.67
2018-02-22T06:12:42.524Z,36.17
2018-02-22T06:15:10.216Z,45.20
2018-02-22T06:17:37.967Z,39.20
2018-02-22T06:20:05.736Z,40.58
2018-02-22T06:22:33.815Z,41.03
2018-02-22T06:25:01.571Z,42.05
2018-02-22T06:27:29.304Z,37.35
2018-02-22T06:29:56.988Z,39.53
2018-02-22T06:32:25.673Z,33.63
2018-02-22T06:34:53.451Z,36.83
2018-02-22T06:37:21.145Z,42.62
2018-02-22T06:39:48.851Z,47.25
2018-02-22T06:42:16.649Z,40.88
2018-02-22T06:44:44.355Z,47.97
2018-02-22T06:47:12.064Z,39.92
2018-02-22T06:49:39.780Z,47.35
2018-02-22T06:52:07.511Z,46.97
2018-02-22T06:54:35.267Z,34.33
2018-02-22T06:57:02.961Z,36.13
2018-02-22T06:59:30.681Z,44.30
2018-02-22T07:01:58.368Z,38.60
2018-02-22T07:04:26.080Z,40.15
2018-02-22T07:06:54.136Z,39.65
2018-02-22T07:09:21.778Z,50.17
2018-02-22T07:11:49.464Z,41.03
2018-02-22T07:14:17.196Z,43.80
2018-02-22T07:16:44.848Z,49.20
2018-02-22T07:19:12.508Z,43.20
2018-02-22T07:21:40.215Z,44.88
2018-02-22T07:24:07.966Z,38.00
2018-02-22T07:26:35.607Z,43.97
2018-02-22T07:29:03.224Z,41.57
2018-02-22T07:31:30.933Z,48.40
2018-02-22T07:33:58.616Z,37.38
2018-02-22T07:36:26.323Z,42.10
2018-02-22T07:38:54.120Z,40.40
2018-02-22T07:41:21.784Z,40.70
2018-02-22T07:43:49.476Z,42.35
2018-02-22T07:46:17.108Z,44.87
2018-02-22T07:48:44.722Z,37.47
2018-02-22T07:51:12.441Z,37.30
2018-02-22T07:53:40.104Z,36.33
2018-02-22T07:56:07.731Z,32.30
2018-02-22T07:58:35.419Z,34.70
2018-02-22T08:01:03.048Z,29.20
2018-02-22T08:03:30.747Z,35.92
2018-02-22T08:05:58.412Z,37.50
2018-02-22T08:08:26.076Z,28.30
2018-02-22T08:10:53.736Z,37.67
2018-02-22T08:13:21.404Z,36.47
2018-02-22T08:15:49.007Z,32.87
2018-02-22T08:18:16.645Z,28.77
2018-02-22T08:20:44.283Z,33.60
2018-02-22T08:23:11.915Z,34.53
2018-02-22T08:25:39.612Z,33.70
2018-02-22T08:28:07.240Z,33.10
2018-02-22T08:30:34.854Z,36.57
2018-02-22T08:33:02.598Z,39.73
2018-02-22T08:35:30.268Z,33.97
2018-02-22T08:37:57.910Z,31.47
2018-02-22T08:40:25.519Z,31.90
2018-02-22T08:42:53.147Z,38.33
2018-02-22T08:45:20.815Z,34.83
2018-02-22T08:47:48.440Z,36.50
2018-02-22T08:50:16.140Z,31.70
2018-02-22T08:52:43.777Z,34.33
2018-02-22T08:55:11.392Z,42.67
2018-02-22T08:57:39.024Z,38.73
2018-02-22T09:00:06.688Z,34.97
2018-02-22T09:02:34.405Z,37.27
2018-02-22T09:05:02.009Z,30.63
2018-02-22T09:07:29.617Z,31.60
2018-02-22T09:09:57.275Z,30.43
2018-02-22T09:12:24.879Z,32.90
2018-02-22T09:14:52.512Z,35.40
2018-02-22T09:17:20.209Z,31.67
2018-02-22T09:19:47.844Z,33.33
2018-02-22T09:22:15.453Z,29.27
2018-02-22T09:24:43.088Z,28.60
2018-02-22T09:27:10.687Z,28.30
2018-02-22T09:29:38.319Z,30.60
2018-02-22T09:32:06.097Z,31.60
2018-02-22T09:34:33.763Z,26.40
2018-02-22T09:37:01.424Z,26.90
2018-02-22T09:39:29.083Z,26.00
2018-02-22T09:41:56.758Z,27.23
2018-02-22T09:44:24.412Z,30.30
2018-02-22T09:46:52.048Z,29.90
2018-02-22T09:49:19.736Z,30.57
2018-02-22T09:51:47.363Z,25.80
2018-02-22T09:54:14.991Z,30.27
2018-02-22T09:56:42.724Z,27.50
2018-02-22T09:59:10.328Z,28.63
2018-02-22T10:01:37.956Z,27.60
2018-02-22T10:04:05.573Z,26.50
2018-02-22T10:06:33.208Z,26.70
2018-02-22T10:09:00.853Z,32.87
2018-02-22T10:11:28.496Z,30.80
2018-02-22T10:13:56.159Z,33.17
2018-02-22T10:16:23.828Z,27.30
2018-02-22T10:18:51.487Z,33.00
2018-02-22T10:21:19.120Z,32.77
2018-02-22T10:23:46.728Z,25.87
2018-02-22T10:26:14.371Z,27.37
2018-02-22T10:28:42.044Z,33.40
2018-02-22T10:31:09.695Z,32.50
2018-02-22T10:33:37.303Z,31.20
2018-02-22T10:36:04.926Z,32.90
2018-02-22T10:38:32.556Z,33.90
2018-02-22T10:41:00.181Z,37.50
2018-02-22T10:43:27.907Z,36.63
2018-02-22T10:45:55.581Z,33.70
2018-02-22T10:48:23.220Z,39.47
2018-02-22T10:50:50.869Z,37.83
2018-02-22T10:53:18.564Z,41.67
2018-02-22T10:55:46.171Z,50.70
2018-02-22T10:58:13.803Z,39.43
2018-02-22T11:00:47.080Z,40.53
2018-02-22T11:03:14.710Z,43.83
2018-02-22T11:05:42.315Z,42.60
2018-02-22T11:08:11.509Z,50.17
2018-02-22T11:10:39.273Z,39.57
2018-02-22T11:13:06.928Z,45.80
2018-02-22T11:15:34.595Z,44.43
2018-02-22T11:18:02.206Z,43.30
2018-02-22T11:20:29.920Z,52.17
2018-02-22T11:22:57.584Z,46.57
2018-02-22T11:25:25.244Z,52.70
2018-02-22T11:27:52.860Z,46.87
2018-02-22T11:30:20.510Z,51.97
2018-02-22T11:32:48.232Z,48.37
2018-02-22T11:35:15.865Z,57.37
2018-02-22T11:37:43.476Z,48.90
2018-02-22T11:40:11.115Z,49.57
2018-02-22T11:42:38.733Z,47.90
2018-02-22T11:45:06.446Z,45.20
2018-02-22T11:47:34.052Z,54.83
2018-02-22T11:50:01.777Z,52.27
2018-02-22T11:52:29.391Z,54.10
2018-02-22T11:54:57.101Z,46.13
2018-02-22T11:57:24.708Z,51.30
2018-02-22T11:59:52.340Z,51.63
2018-02-22T12:02:19.992Z,71.40
2018-02-22T12:04:47.648Z,49.73
2018-02-22T12:07:15.308Z,70.33
2018-02-22T12:09:42.912Z,50.77
2018-02-22T12:12:10.636Z,46.20
2018-02-22T12:14:38.296Z,42.03
2018-02-22T12:17:05.928Z,41.77
2018-02-22T12:19:33.535Z,39.57
2018-02-22T12:22:01.164Z,39.23
2018-02-22T12:24:28.784Z,38.17
2018-02-22T12:26:56.411Z,39.10
2018-02-22T12:29:24.075Z,41.80
2018-02-22T12:31:51.727Z,43.27
2018-02-22T12:34:19.328Z,53.30
2018-02-22T12:36:46.969Z,41.97
2018-02-22T12:39:14.576Z,41.47
2018-02-22T12:41:42.286Z,42.17
2018-02-22T12:44:09.939Z,36.67
2018-02-22T12:46:37.604Z,54.17
2018-02-22T12:49:05.273Z,42.80
2018-02-22T12:51:32.932Z,45.83
2018-02-22T12:54:00.559Z,35.70
2018-02-22T12:56:28.176Z,41.07
2018-02-22T12:58:55.924Z,35.77
2018-02-22T13:01:23.681Z,36.13
2018-02-22T13:03:51.316Z,39.83
2018-02-22T13:06:18.920Z,32.87
2018-02-22T13:08:46.575Z,32.70
2018-02-22T13:11:14.234Z,37.67
2018-02-22T13:13:41.864Z,37.00
2018-02-22T13:16:09.472Z,27.90
2018-02-22T13:18:37.129Z,27.40
2018-02-22T13:21:04.740Z,27.90
2018-02-22T13:23:32.443Z,27.63
2018-02-22T13:26:00.114Z,24.40
2018-02-22T13:28:27.768Z,24.00
2018-02-22T13:30:55.431Z,19.87
2018-02-22T13:33:34.991Z,22.57
2018-02-22T13:36:02.620Z,25.60
2018-02-22T13:38:41.972Z,17.97
2018-02-22T13:41:09.609Z,18.20
2018-02-22T13:43:37.267Z,16.90
2018-02-22T13:46:04.972Z,20.20
2018-02-22T13:48:44.507Z,34.63
2018-02-22T13:51:12.173Z,26.43
2018-02-22T13:53:39.790Z,27.90
2018-02-22T13:56:07.424Z,21.47
2018-02-22T13:58:35.155Z,16.03
2018-02-22T14:01:14.598Z,23.80
2018-02-22T14:03:42.217Z,26.07
2018-02-22T14:06:09.924Z,25.70
2018-02-22T14:08:43.528Z,21.13
2018-02-22T14:11:11.193Z,36.20
2018-02-22T14:13:38.809Z,25.00
2018-02-22T14:16:06.441Z,37.37
2018-02-22T14:18:34.076Z,28.17
2018-02-22T14:21:01.713Z,26.90
2018-02-22T14:23:29.395Z,20.77
2018-02-22T14:25:57.059Z,26.83
2018-02-22T14:28:24.719Z,22.70
2018-02-22T14:30:52.383Z,25.00
2018-02-22T14:33:19.992Z,20.10
2018-02-22T14:35:47.709Z,20.27
2018-02-22T14:38:15.381Z,26.73
2018-02-22T14:40:43.035Z,22.73
2018-02-22T14:43:10.696Z,23.57
2018-02-22T14:45:38.372Z,25.30
2018-02-22T14:48:06.024Z,19.97
2018-02-22T14:50:33.688Z,26.23
2018-02-22T14:53:01.325Z,26.43
2018-02-22T14:55:29.022Z,27.30
2018-02-22T14:57:56.679Z,29.77
2018-02-22T15:00:24.339Z,21.70
2018-02-22T15:02:52.008Z,23.33
2018-02-22T15:05:19.672Z,22.33
2018-02-22T15:07:47.334Z,28.50
2018-02-22T15:10:14.993Z,24.50
2018-02-22T15:12:42.629Z,25.10
2018-02-22T15:15:10.240Z,25.30
2018-02-22T15:17:37.976Z,23.60
2018-02-22T15:20:05.612Z,21.80
2018-02-22T15:22:33.235Z,21.33
2018-02-22T15:25:00.840Z,26.17
2018-02-22T15:27:28.479Z,30.10
2018-02-22T15:29:56.201Z,22.20
2018-02-22T15:32:23.960Z,22.20
2018-02-22T15:34:51.602Z,23.53
2018-02-22T15:37:19.900Z,19.90
2018-02-22T15:39:47.564Z,18.83
2018-02-22T15:42:15.219Z,19.90
2018-02-22T15:44:42.861Z,20.80
2018-02-22T15:47:10.486Z,21.80
2018-02-22T15:49:38.207Z,28.07
2018-02-22T15:52:05.821Z,23.83
2018-02-22T15:54:33.452Z,23.80
2018-02-22T15:57:01.056Z,27.93
2018-02-22T15:59:28.687Z,22.60
2018-02-22T16:01:56.320Z,24.67
2018-02-22T16:04:23.952Z,24.23
2018-02-22T16:06:51.648Z,27.43
2018-02-22T16:09:19.314Z,21.63
2018-02-22T16:11:46.973Z,22.20
2018-02-22T16:14:14.640Z,22.97
2018-02-22T16:16:42.258Z,20.50
2018-02-22T16:19:09.913Z,22.33
2018-02-22T16:21:37.519Z,22.00
2018-02-22T16:24:05.155Z,21.13
2018-02-22T16:26:32.844Z,20.40
2018-02-22T16:29:00.476Z,25.40
2018-02-22T16:31:28.115Z,25.33
2018-02-22T16:33:55.728Z,19.90
2018-02-22T16:36:23.363Z,22.90
2018-02-22T16:38:51.055Z,22.73
2018-02-22T16:41:18.719Z,19.90
2018-02-22T16:43:46.380Z,23.70
2018-02-22T16:46:14.048Z,21.60
2018-02-22T16:48:41.655Z,24.93
2018-02-22T16:51:09.284Z,29.40
2018-02-22T16:53:36.932Z,21.27
2018-02-22T16:56:04.600Z,26.77
2018-02-22T16:58:32.261Z,25.17
2018-02-22T17:00:59.924Z,25.13
2018-02-22T17:03:27.580Z,30.47
2018-02-22T17:05:55.243Z,34.70
2018-02-22T17:08:22.917Z,26.50
2018-02-22T17:10:50.556Z,38.57
2018-02-22T17:13:18.231Z,43.50
2018-02-22T17:15:45.882Z,40.43
2018-02-22T17:18:13.511Z,51.17
2018-02-22T17:20:41.124Z,45.60
2018-02-22T17:23:08.756Z,31.27
2018-02-22T17:25:35.806Z,38.97
2018-02-22T17:28:09.164Z,37.50
2018-02-22T17:30:42.359Z,41.67
2018-02-22T17:33:09.984Z,40.40
2018-02-22T17:35:38.401Z,38.73
2018-02-22T17:38:06.840Z,44.07
2018-02-22T17:40:40.208Z,43.53
2018-02-22T17:43:07.852Z,46.07
2018-02-22T17:45:35.471Z,42.00
2018-02-22T17:48:03.229Z,35.93
2018-02-22T17:50:31.400Z,41.97
2018-02-22T17:52:59.232Z,39.23
2018-02-22T17:55:26.855Z,36.87
2018-02-22T17:57:54.485Z,42.37
2018-02-22T18:00:22.103Z,46.27
2018-02-22T18:02:49.733Z,54.27
2018-02-22T18:05:17.341Z,52.80
2018-02-22T18:07:45.040Z,34.87
2018-02-22T18:10:12.705Z,47.40
2018-02-22T18:12:40.336Z,49.83
2018-02-22T18:15:07.949Z,48.50
2018-02-22T18:17:35.580Z,47.53
2018-02-22T18:20:03.193Z,41.40
2018-02-22T18:22:30.824Z,42.33
2018-02-22T18:24:58.433Z,35.53
2018-02-22T18:27:26.036Z,35.30
2018-02-22T18:29:53.668Z,36.43
2018-02-22T18:32:21.284Z,36.20
2018-02-22T18:34:48.920Z,34.17
2018-02-22T18:37:21.968Z,39.00
2018-02-22T18:39:49.599Z,30.97
2018-02-22T18:42:21.238Z,39.07
2018-02-22T18:44:54.493Z,39.47
2018-02-22T18:47:22.187Z,45.97
2018-02-22T18:49:49.825Z,54.70
2018-02-22T18:52:17.457Z,41.60
2018-02-22T18:54:45.106Z,48.00
2018-02-22T18:57:12.800Z,44.80
2018-02-22T18:59:40.504Z,51.83
2018-02-22T19:02:08.111Z,41.77
2018-02-22T19:04:35.744Z,43.67
2018-02-22T19:07:03.500Z,46.58
2018-02-22T19:09:31.239Z,51.67
2018-02-22T19:11:58.898Z,46.80
2018-02-22T19:14:26.513Z,45.70
2018-02-22T19:16:54.253Z,45.28
2018-02-22T19:19:21.955Z,47.78
2018-02-22T19:21:49.673Z,41.75
2018-02-22T19:24:17.284Z,37.03
2018-02-22T19:26:45.104Z,35.92
2018-02-22T19:29:12.788Z,36.42
2018-02-22T19:31:41.294Z,37.28
2018-02-22T19:34:09.017Z,32.13
2018-02-22T19:36:36.672Z,36.13
2018-02-22T19:39:04.281Z,33.40
2018-02-22T19:41:32.108Z,40.15
2018-02-22T19:43:59.864Z,28.12
2018-02-22T19:46:27.598Z,37.20
2018-02-22T19:48:55.400Z,32.33
2018-02-22T19:51:23.160Z,32.90
2018-02-22T19:53:50.875Z,23.87
2018-02-22T19:56:18.591Z,28.75
2018-02-22T19:58:46.361Z,26.95
2018-02-22T20:01:14.051Z,30.50
2018-02-22T20:03:41.803Z,30.05
2018-02-22T20:06:09.548Z,22.37
2018-02-22T20:08:37.256Z,30.02
2018-02-22T20:11:04.949Z,23.00
2018-02-22T20:13:32.656Z,27.52
2018-02-22T20:16:00.413Z,22.73
2018-02-22T20:18:28.100Z,23.62
2018-02-22T20:20:55.788Z,25.55
2018-02-22T20:23:23.596Z,23.45
2018-02-22T20:25:51.368Z,22.80
2018-02-22T20:28:19.080Z,24.48
2018-02-22T20:30:46.763Z,20.45
2018-02-22T20:33:14.466Z,18.77
2018-02-22T20:35:42.223Z,21.95
2018-02-22T20:38:10.208Z,17.98
2018-02-22T20:40:37.896Z,19.75
2018-02-22T20:43:05.600Z,21.23
2018-02-22T20:45:33.283Z,20.62
2018-02-22T20:48:01.007Z,16.58
2018-02-22T20:50:28.696Z,15.93
2018-02-22T20:52:58.216Z,16.80
2018-02-22T20:55:35.871Z,16.37
2018-02-22T20:58:03.584Z,16.60
2018-02-22T21:00:31.280Z,20.50
2018-02-22T21:02:59.084Z,15.85
2018-02-22T21:05:26.769Z,16.00
2018-02-22T21:07:54.480Z,15.65
2018-02-22T21:10:22.208Z,14.55
2018-02-22T21:12:49.968Z,14.93
2018-02-22T21:15:17.669Z,19.85
2018-02-22T21:17:45.392Z,15.32
2018-02-22T21:20:13.103Z,18.17
2018-02-22T21:22:40.788Z,18.52
2018-02-22T21:25:08.587Z,16.83
2018-02-22T21:27:36.275Z,16.23
2018-02-22T21:30:04.012Z,17.85
2018-02-22T21:32:31.776Z,15.25
2018-02-22T21:34:59.540Z,14.48
2018-02-22T21:37:27.303Z,19.45
2018-02-22T21:39:55.042Z,15.00
2018-02-22T21:42:22.836Z,15.00
2018-02-22T21:44:50.548Z,16.17
2018-02-22T21:47:18.241Z,19.55
2018-02-22T21:49:46.032Z,16.67
2018-02-22T21:52:13.801Z,21.27
2018-02-22T21:54:41.573Z,20.48
2018-02-22T21:57:09.268Z,19.65
2018-02-22T21:59:36.987Z,24.83
2018-02-22T22:02:04.700Z,17.25
2018-02-22T22:04:32.419Z,16.15
2018-02-22T22:07:00.183Z,21.62
2018-02-22T22:09:27.953Z,14.40
2018-02-22T22:11:55.712Z,16.10
2018-02-22T22:14:23.403Z,27.25
2018-02-22T22:16:51.109Z,23.95
2018-02-22T22:19:18.804Z,14.32
2018-02-22T22:21:46.513Z,15.77
2018-02-22T22:24:14.195Z,16.55
2018-02-22T22:26:41.905Z,14.65
2018-02-22T22:29:09.661Z,14.20
2018-02-22T22:31:37.423Z,14.27
2018-02-22T22:34:05.100Z,18.85
2018-02-22T22:36:32.861Z,18.40
2018-02-22T22:39:00.620Z,11.95
2018-02-22T22:41:28.310Z,12.98
2018-02-22T22:43:56.016Z,13.15
2018-02-22T22:46:23.702Z,14.02
2018-02-22T22:48:51.413Z,10.80
2018-02-22T22:51:19.106Z,9.38
2018-02-22T22:53:46.900Z,13.77
2018-02-22T22:56:14.606Z,12.40
2018-02-22T22:58:42.341Z,10.75
2018-02-22T23:01:10.101Z,17.58
2018-02-22T23:03:37.816Z,11.40
2018-02-22T23:06:05.524Z,10.43
2018-02-22T23:08:33.240Z,10.02
2018-02-22T23:11:00.951Z,9.43
2018-02-22T23:13:28.655Z,11.88
2018-02-22T23:15:56.380Z,13.45
2018-02-22T23:18:24.091Z,20.33
2018-02-22T23:20:51.809Z,11.23
2018-02-22T23:23:19.544Z,11.82
2018-02-22T23:25:47.220Z,19.23
2018-02-22T23:28:14.899Z,13.80
2018-02-22T23:30:42.621Z,14.13
2018-02-22T23:33:10.308Z,13.27
2018-02-22T23:35:38.020Z,11.88
2018-02-22T23:38:05.709Z,12.05
2018-02-22T23:40:49.260Z,19.67
2018-02-22T23:43:16.939Z,12.43
2018-02-22T23:45:44.675Z,15.30
2018-02-22T23:48:12.365Z,15.93
2018-02-22T23:50:40.145Z,13.55
2018-02-22T23:53:07.839Z,15.88
2018-02-22T23:55:35.543Z,20.37
2018-02-22T23:58:03.229Z,13.05
